SondeTracker

Meteorological Radiosondes Database

Operations

Sounding was ended - last measurement: 2022-12-06 13:30:39z

MAP
About Radiosonde

Number: D22020518 (22020518)

Launch Site: Washington [VA] (US)

Type: DFM

AUX: NO

Frequency: 400.511 MHz

Max Speed: 161 km/h at 14241 m

Average Speed: 81.43 km/h

Max Altitude: 31398 m

Average Ascent Speed: 4.69 m/s

Average Descent Speed: 30.66 m/s

Status: UNKNOWN

Status Changes
Launch Site Type AUX Frequency Status Finder Landing Point Description Changes made by
APRS Statistics

Received Frames: 131

First Frame [UTC]: 2022-12-06 12:17:31z

Last Frame [UTC]: 2022-12-06 13:30:39z

Receivers: K4KDR-12, KB3ZOX

Flight Time: 01:13:08 h

Distance From First Measurement: 100.24 km

Nearest City: Milford [DE] (US) [14.72 km]

Nearest Hunter: KB3ZOX [92.34 km]

Ground Altitude: 16 m

Distance from QTH: 0.00 km

APRS Data
Receiver Number Date/Time [UTC] φ λ Course [°] Speed [km/h] Altitude [m] Description
K4KDR-12D220205182022-12-06 13:30:3938.8299-75.558710913010274Clb=-7.8m/s t=-50.0C h=-1.0% p=-1.0hPa 400.510 MHz Type=DFM17 ser=22020518 Radiosonde
K4KDR-12D220205182022-12-06 13:29:3838.8322-75.567211213310449Clb=-8.5m/s t=-51.0C h=-1.0% p=-1.0hPa 400.510 MHz Type=DFM17 ser=22020518 Radiosonde
K4KDR-12D220205182022-12-06 13:28:3738.84-75.59311013710968Clb=-8.5m/s t=-55.1C h=-1.0% p=-1.0hPa 400.510 MHz Type=DFM17 ser=22020518 Radiosonde
K4KDR-12D220205182022-12-06 13:27:3638.8473-75.617110913511434Clb=-8.0m/s t=-59.0C h=-1.0% p=-1.0hPa 400.510 MHz Type=DFM17 ser=22020518 Radiosonde
K4KDR-12D220205182022-12-06 13:26:3438.8564-75.641611713711923Clb=-8.5m/s t=-61.8C h=-1.0% p=-1.0hPa 400.510 MHz Type=DFM17 ser=22020518 Radiosonde
K4KDR-12D220205182022-12-06 13:25:3738.8657-75.665911613012464Clb=-8.9m/s t=-63.6C h=-1.0% p=-1.0hPa 400.510 MHz Type=DFM17 ser=22020518 Radiosonde
K4KDR-12D220205182022-12-06 13:24:3438.8761-75.700111414313225Clb=-9.8m/s t=-62.6C h=-1.0% p=-1.0hPa 400.510 MHz Type=DFM17 ser=22020518 Radiosonde
K4KDR-12D220205182022-12-06 13:22:5238.9243-75.93111115426228Clb=-31.0m/s t=-54.4C h=-1.0% p=-1.0hPa 400.510 MHz Type=DFM17 ser=22020518 Radiosonde
KB3ZOXD220205182022-12-06 13:21:5038.9234-75.942777227659Clb=-32.7m/s t=-46.6C 400.511MHz Type=DFM ser=22020518 rdzTTGOsonde
K4KDR-12D220205182022-12-06 13:21:3538.9226-75.9445564828169Clb=-35.8m/s t=-51.7C h=-1.0% p=-1.0hPa 400.510 MHz Type=DFM17 ser=22020518 Radiosonde
K4KDR-12D220205182022-12-06 13:20:1738.9192-75.96028111730502Clb=-38.6m/s t=-51.3C h=-1.0% p=-1.0hPa 400.510 MHz Type=DFM17 ser=22020518 Radiosonde
KB3ZOXD220205182022-12-06 13:20:0038.9186-75.96317813130834Clb=-41.2m/s t=-43.7C 400.511MHz Type=DFM ser=22020518 rdzTTGOsonde
KB3ZOXD220205182022-12-06 13:19:1038.916-75.97918214131398Clb=5.2m/s t=-42.9C 400.511MHz Type=DFM ser=22020518 rdzTTGOsonde
K4KDR-12D220205182022-12-06 13:18:4938.9149-75.98798613131273Clb=6.8m/s t=-49.3C h=-1.0% p=-1.0hPa 400.510 MHz Type=DFM17 ser=22020518 Radiosonde
KB3ZOXD220205182022-12-06 13:18:4438.9148-75.98838813931267Clb=6.5m/s t=-42.8C 400.511MHz Type=DFM ser=22020518 rdzTTGOsonde
KB3ZOXD220205182022-12-06 13:18:0938.9126-76.00058214131080Clb=5.9m/s t=-42.9C 400.511MHz Type=DFM ser=22020518 rdzTTGOsonde
KB3ZOXD220205182022-12-06 13:17:3938.9112-76.00947512030928Clb=7.9m/s t=-44.0C 400.511MHz Type=DFM ser=22020518 rdzTTGOsonde
K4KDR-12D220205182022-12-06 13:17:2938.9106-76.01317311530856Clb=8.7m/s t=-50.6C h=-1.0% p=-1.0hPa 400.510 MHz Type=DFM17 ser=22020518 Radiosonde
KB3ZOXD220205182022-12-06 13:16:5338.9091-76.02047211330710Clb=7.1m/s t=-44.1C 400.511MHz Type=DFM ser=22020518 rdzTTGOsonde
K4KDR-12D220205182022-12-06 13:16:0838.9071-76.03368013930454Clb=6.8m/s t=-51.1C h=-1.0% p=-1.0hPa 400.510 MHz Type=DFM17 ser=22020518 Radiosonde
K4KDR-12D220205182022-12-06 13:14:4338.9049-76.0542968030055Clb=5.2m/s t=-50.7C h=-1.0% p=-1.0hPa 400.510 MHz Type=DFM17 ser=22020518 Radiosonde
K4KDR-12D220205182022-12-06 13:13:2038.9014-76.07356912229644Clb=7.1m/s t=-50.8C h=-1.0% p=-1.0hPa 400.510 MHz Type=DFM17 ser=22020518 Radiosonde
K4KDR-12D220205182022-12-06 13:12:0138.8977-76.0915918029239Clb=5.1m/s t=-51.8C h=-1.0% p=-1.0hPa 400.510 MHz Type=DFM17 ser=22020518 Radiosonde
K4KDR-12D220205182022-12-06 13:11:4938.8938-76.10826810728811Clb=8.0m/s t=-52.5C h=-1.0% p=-1.0hPa 400.510 MHz Type=DFM17 ser=22020518 Radiosonde
K4KDR-12D220205182022-12-06 13:11:3838.8907-76.1232716328410Clb=7.2m/s t=-53.2C h=-1.0% p=-1.0hPa 400.510 MHz Type=DFM17 ser=22020518 Radiosonde
K4KDR-12D220205182022-12-06 13:11:1538.8878-76.1358666128026Clb=6.8m/s t=-54.2C h=-1.0% p=-1.0hPa 400.510 MHz Type=DFM17 ser=22020518 Radiosonde
K4KDR-12D220205182022-12-06 13:09:4038.8884-76.15189110627595Clb=5.2m/s t=-54.0C h=-1.0% p=-1.0hPa 400.510 MHz Type=DFM17 ser=22020518 Radiosonde
KB3ZOXD220205182022-12-06 13:09:2138.8885-76.1529956327559Clb=5.4m/s t=-47.6C 400.511MHz Type=DFM ser=22020518 rdzTTGOsonde
KB3ZOXD220205182022-12-06 13:08:4638.8884-76.1586909827415Clb=8.0m/s t=-47.3C 400.511MHz Type=DFM ser=22020518 rdzTTGOsonde
KB3ZOXD220205182022-12-06 13:08:0338.8875-76.1675776327174Clb=4.9m/s t=-48.0C 400.511MHz Type=DFM ser=22020518 rdzTTGOsonde
K4KDR-12D220205182022-12-06 13:07:5038.8875-76.1677777427168Clb=6.9m/s t=-54.4C h=-1.0% p=-1.0hPa 400.510 MHz Type=DFM17 ser=22020518 Radiosonde
KB3ZOXD220205182022-12-06 13:07:1738.887-76.17088010627083Clb=6.3m/s t=-49.7C 400.511MHz Type=DFM ser=22020518 rdzTTGOsonde
KB3ZOXD220205182022-12-06 13:06:4338.8857-76.1753749826944Clb=5.7m/s t=-50.1C 400.511MHz Type=DFM ser=22020518 rdzTTGOsonde
KB3ZOXD220205182022-12-06 13:06:1438.8844-76.1794807026800Clb=6.9m/s t=-50.1C 400.511MHz Type=DFM ser=22020518 rdzTTGOsonde
K4KDR-12D220205182022-12-06 13:06:1038.8843-76.1801765426763Clb=7.5m/s t=-55.9C h=-1.0% p=-1.0hPa 400.510 MHz Type=DFM17 ser=22020518 Radiosonde
KB3ZOXD220205182022-12-06 13:05:4438.8838-76.183944626657Clb=8.4m/s t=-49.1C 400.511MHz Type=DFM ser=22020518 rdzTTGOsonde
KB3ZOXD220205182022-12-06 13:05:1338.884-76.18641245926509Clb=5.6m/s t=-49.1C 400.511MHz Type=DFM ser=22020518 rdzTTGOsonde
KB3ZOXD220205182022-12-06 13:04:3038.8849-76.19161006126336Clb=7.0m/s t=-49.1C 400.511MHz Type=DFM ser=22020518 rdzTTGOsonde
KB3ZOXD220205182022-12-06 13:03:5138.8851-76.1958685226180Clb=6.8m/s t=-48.2C 400.511MHz Type=DFM ser=22020518 rdzTTGOsonde
KB3ZOXD220205182022-12-06 13:03:1538.8848-76.2004898026035Clb=7.4m/s t=-49.1C 400.511MHz Type=DFM ser=22020518 rdzTTGOsonde
K4KDR-12D220205182022-12-06 13:02:5438.8846-76.2042736925929Clb=6.3m/s t=-56.0C h=-1.0% p=-1.0hPa 400.510 MHz Type=DFM17 ser=22020518 Radiosonde
KB3ZOXD220205182022-12-06 13:02:4638.8846-76.20531017025889Clb=6.3m/s t=-50.1C 400.511MHz Type=DFM ser=22020518 rdzTTGOsonde
KB3ZOXD220205182022-12-06 13:02:1438.8843-76.2105827625767Clb=7.4m/s t=-50.3C 400.511MHz Type=DFM ser=22020518 rdzTTGOsonde
KB3ZOXD220205182022-12-06 13:01:3738.8836-76.217799125606Clb=5.5m/s t=-50.2C 400.511MHz Type=DFM ser=22020518 rdzTTGOsonde
K4KDR-12D220205182022-12-06 13:01:1838.883-76.2194749325544Clb=5.6m/s t=-56.5C h=-1.0% p=-1.0hPa 400.510 MHz Type=DFM17 ser=22020518 Radiosonde
KB3ZOXD220205182022-12-06 13:00:5738.8825-76.223877825484Clb=5.9m/s t=-50.4C 400.511MHz Type=DFM ser=22020518 rdzTTGOsonde
KB3ZOXD220205182022-12-06 13:00:1838.8816-76.2279877425352Clb=4.9m/s t=-50.9C 400.511MHz Type=DFM ser=22020518 rdzTTGOsonde
KB3ZOXD220205182022-12-06 12:59:3538.8809-76.2332838525227Clb=6.2m/s t=-51.8C 400.511MHz Type=DFM ser=22020518 rdzTTGOsonde
K4KDR-12D220205182022-12-06 12:59:1538.8807-76.23711006325129Clb=6.3m/s t=-57.8C h=-1.0% p=-1.0hPa 400.510 MHz Type=DFM17 ser=22020518 Radiosonde
KB3ZOXD220205182022-12-06 12:58:4438.8806-76.239985925074Clb=5.6m/s t=-51.7C 400.511MHz Type=DFM ser=22020518 rdzTTGOsonde
KB3ZOXD220205182022-12-06 12:57:5938.8805-76.2431896524948Clb=6.5m/s t=-51.6C 400.511MHz Type=DFM ser=22020518 rdzTTGOsonde
KB3ZOXD220205182022-12-06 12:57:1838.8804-76.247765224816Clb=6.2m/s t=-52.4C 400.511MHz Type=DFM ser=22020518 rdzTTGOsonde
K4KDR-12D220205182022-12-06 12:57:1138.8805-76.2484805424756Clb=6.0m/s t=-58.3C h=-1.0% p=-1.0hPa 400.510 MHz Type=DFM17 ser=22020518 Radiosonde
KB3ZOXD220205182022-12-06 12:56:4138.8807-76.2516726524647Clb=5.3m/s t=-52.8C 400.511MHz Type=DFM ser=22020518 rdzTTGOsonde
KB3ZOXD220205182022-12-06 12:55:5738.8807-76.2557956924508Clb=7.6m/s t=-53.3C 400.511MHz Type=DFM ser=22020518 rdzTTGOsonde
K4KDR-12D220205182022-12-06 12:55:2238.8804-76.2599737824392Clb=5.7m/s t=-59.4C h=-1.0% p=-1.0hPa 400.510 MHz Type=DFM17 ser=22020518 Radiosonde
KB3ZOXD220205182022-12-06 12:55:1638.8804-76.2607948524374Clb=6.2m/s t=-53.4C 400.511MHz Type=DFM ser=22020518 rdzTTGOsonde
KB3ZOXD220205182022-12-06 12:54:3438.8796-76.2658807624235Clb=6.7m/s t=-53.2C 400.511MHz Type=DFM ser=22020518 rdzTTGOsonde
KB3ZOXD220205182022-12-06 12:53:5938.8788-76.2703837024113Clb=5.5m/s t=-53.0C 400.511MHz Type=DFM ser=22020518 rdzTTGOsonde
K4KDR-12D220205182022-12-06 12:53:3338.878-76.2729766124035Clb=5.8m/s t=-59.7C h=-1.0% p=-1.0hPa 400.510 MHz Type=DFM17 ser=22020518 Radiosonde
KB3ZOXD220205182022-12-06 12:53:2338.878-76.2738645924000Clb=4.9m/s t=-53.7C 400.511MHz Type=DFM ser=22020518 rdzTTGOsonde
KB3ZOXD220205182022-12-06 12:52:4438.8776-76.2773865023887Clb=5.5m/s t=-54.0C 400.511MHz Type=DFM ser=22020518 rdzTTGOsonde
KB3ZOXD220205182022-12-06 12:51:5938.8775-76.2802975923778Clb=5.5m/s t=-55.1C 400.511MHz Type=DFM ser=22020518 rdzTTGOsonde
K4KDR-12D220205182022-12-06 12:51:3338.8769-76.2825525223696Clb=4.0m/s t=-62.2C h=-1.0% p=-1.0hPa 400.510 MHz Type=DFM17 ser=22020518 Radiosonde
KB3ZOXD220205182022-12-06 12:51:2038.8766-76.2836575023661Clb=6.2m/s t=-56.5C 400.511MHz Type=DFM ser=22020518 rdzTTGOsonde
KB3ZOXD220205182022-12-06 12:50:4238.8756-76.2866624823545Clb=6.3m/s t=-57.4C 400.511MHz Type=DFM ser=22020518 rdzTTGOsonde
KB3ZOXD220205182022-12-06 12:49:5538.8743-76.2898535223416Clb=6.0m/s t=-56.8C 400.511MHz Type=DFM ser=22020518 rdzTTGOsonde
K4KDR-12D220205182022-12-06 12:49:3438.8742-76.2909433523350Clb=6.1m/s t=-62.5C h=-1.0% p=-1.0hPa 400.510 MHz Type=DFM17 ser=22020518 Radiosonde
KB3ZOXD220205182022-12-06 12:49:0738.874-76.2924933323277Clb=6.3m/s t=-56.6C 400.511MHz Type=DFM ser=22020518 rdzTTGOsonde
KB3ZOXD220205182022-12-06 12:48:2238.8741-76.2956865423142Clb=7.1m/s t=-55.9C 400.511MHz Type=DFM ser=22020518 rdzTTGOsonde
KB3ZOXD220205182022-12-06 12:47:3838.8738-76.2987835223016Clb=6.8m/s t=-55.2C 400.511MHz Type=DFM ser=22020518 rdzTTGOsonde
K4KDR-12D220205182022-12-06 12:47:2338.8739-76.301906322933Clb=7.0m/s t=-60.8C h=-1.0% p=-1.0hPa 400.510 MHz Type=DFM17 ser=22020518 Radiosonde
KB3ZOXD220205182022-12-06 12:46:5738.8738-76.3026916522874Clb=6.9m/s t=-54.7C 400.511MHz Type=DFM ser=22020518 rdzTTGOsonde
KB3ZOXD220205182022-12-06 12:46:2238.8734-76.3061795922751Clb=6.3m/s t=-55.4C 400.511MHz Type=DFM ser=22020518 rdzTTGOsonde
KB3ZOXD220205182022-12-06 12:45:4138.873-76.3094796122623Clb=5.8m/s t=-55.3C 400.511MHz Type=DFM ser=22020518 rdzTTGOsonde
K4KDR-12D220205182022-12-06 12:45:2938.873-76.3103854322580Clb=5.4m/s t=-61.0C h=-1.0% p=-1.0hPa 400.510 MHz Type=DFM17 ser=22020518 Radiosonde
KB3ZOXD220205182022-12-06 12:44:4938.8733-76.3123864822483Clb=4.7m/s t=-56.2C 400.511MHz Type=DFM ser=22020518 rdzTTGOsonde
KB3ZOXD220205182022-12-06 12:44:0538.8737-76.31511174122366Clb=4.8m/s t=-56.6C 400.511MHz Type=DFM ser=22020518 rdzTTGOsonde
K4KDR-12D220205182022-12-06 12:43:5838.8731-76.3186525622241Clb=5.9m/s t=-63.2C h=-1.0% p=-1.0hPa 400.510 MHz Type=DFM17 ser=22020518 Radiosonde
KB3ZOXD220205182022-12-06 12:43:5238.8726-76.32635422196Clb=4.8m/s t=-57.2C 400.511MHz Type=DFM ser=22020518 rdzTTGOsonde
KB3ZOXD220205182022-12-06 12:43:5038.8718-76.3231835222091Clb=4.5m/s t=-57.0C 400.511MHz Type=DFM ser=22020518 rdzTTGOsonde
KB3ZOXD220205182022-12-06 12:43:4938.8707-76.3264626321981Clb=3.7m/s t=-57.3C 400.511MHz Type=DFM ser=22020518 rdzTTGOsonde
K4KDR-12D220205182022-12-06 12:43:4738.8702-76.328824321922Clb=6.4m/s t=-63.3C h=-1.0% p=-1.0hPa 400.510 MHz Type=DFM17 ser=22020518 Radiosonde
KB3ZOXD220205182022-12-06 12:43:4438.8695-76.3291533521860Clb=6.0m/s t=-57.7C 400.511MHz Type=DFM ser=22020518 rdzTTGOsonde
KB3ZOXD220205182022-12-06 12:43:3338.8683-76.3303552421742Clb=6.2m/s t=-57.0C 400.511MHz Type=DFM ser=22020518 rdzTTGOsonde
KB3ZOXD220205182022-12-06 12:43:2238.8674-76.3316612621619Clb=4.7m/s t=-56.8C 400.511MHz Type=DFM ser=22020518 rdzTTGOsonde
K4KDR-12D220205182022-12-06 12:43:1738.8672-76.3324572421580Clb=5.7m/s t=-62.5C h=-1.0% p=-1.0hPa 400.510 MHz Type=DFM17 ser=22020518 Radiosonde
KB3ZOXD220205182022-12-06 12:43:0238.8671-76.3337974121502Clb=4.7m/s t=-56.9C 400.511MHz Type=DFM ser=22020518 rdzTTGOsonde
KB3ZOXD220205182022-12-06 12:42:0038.8678-76.3369852221254Clb=6.2m/s t=-57.0C 400.511MHz Type=DFM ser=22020518 rdzTTGOsonde
KB3ZOXD220205182022-12-06 12:41:5738.8678-76.3388853721135Clb=5.1m/s t=-57.1C 400.511MHz Type=DFM ser=22020518 rdzTTGOsonde
KB3ZOXD220205182022-12-06 12:41:5438.8673-76.3404593921014Clb=6.4m/s t=-57.2C 400.511MHz Type=DFM ser=22020518 rdzTTGOsonde
KB3ZOXD220205182022-12-06 12:41:5238.8666-76.3429935720900Clb=4.9m/s t=-57.3C 400.511MHz Type=DFM ser=22020518 rdzTTGOsonde
KB3ZOXD220205182022-12-06 12:41:5038.8662-76.346783920786Clb=4.7m/s t=-57.6C 400.511MHz Type=DFM ser=22020518 rdzTTGOsonde
KB3ZOXD220205182022-12-06 12:41:4938.8661-76.3499764420661Clb=5.1m/s t=-58.2C 400.511MHz Type=DFM ser=22020518 rdzTTGOsonde
K4KDR-12D220205182022-12-06 12:41:4838.8658-76.3528794620561Clb=5.8m/s t=-64.2C h=-1.0% p=-1.0hPa 400.510 MHz Type=DFM17 ser=22020518 Radiosonde
KB3ZOXD220205182022-12-06 12:41:4638.8657-76.35631034620446Clb=5.6m/s t=-58.8C 400.511MHz Type=DFM ser=22020518 rdzTTGOsonde
KB3ZOXD220205182022-12-06 12:41:4038.8662-76.35911215020345Clb=5.4m/s t=-60.1C 400.511MHz Type=DFM ser=22020518 rdzTTGOsonde
K4KDR-12D220205182022-12-06 12:41:1938.8671-76.36141125020252Clb=6.2m/s t=-65.6C h=-1.0% p=-1.0hPa 400.510 MHz Type=DFM17 ser=22020518 Radiosonde
KB3ZOXD220205182022-12-06 12:41:1638.8672-76.36171043120237Clb=4.2m/s t=-60.0C 400.511MHz Type=DFM ser=22020518 rdzTTGOsonde
KB3ZOXD220205182022-12-06 12:40:5038.8683-76.36371365620125Clb=5.4m/s t=-59.9C 400.511MHz Type=DFM ser=22020518 rdzTTGOsonde
KB3ZOXD220205182022-12-06 12:40:1138.8697-76.36611126120004Clb=6.3m/s t=-59.5C 400.511MHz Type=DFM ser=22020518 rdzTTGOsonde
K4KDR-12D220205182022-12-06 12:39:3838.8708-76.36881115619904Clb=6.3m/s t=-64.8C h=-1.0% p=-1.0hPa 400.510 MHz Type=DFM17 ser=22020518 Radiosonde
KB3ZOXD220205182022-12-06 12:39:2938.871-76.36931276919885Clb=5.9m/s t=-59.1C 400.511MHz Type=DFM ser=22020518 rdzTTGOsonde
KB3ZOXD220205182022-12-06 12:38:4238.8722-76.37341076919759Clb=6.7m/s t=-59.3C 400.511MHz Type=DFM ser=22020518 rdzTTGOsonde
KB3ZOXD220205182022-12-06 12:37:5438.8729-76.3779947019634Clb=5.0m/s t=-59.2C 400.511MHz Type=DFM ser=22020518 rdzTTGOsonde
K4KDR-12D220205182022-12-06 12:37:1938.8731-76.38131006319538Clb=5.4m/s t=-64.2C h=-1.0% p=-1.0hPa 400.510 MHz Type=DFM17 ser=22020518 Radiosonde
KB3ZOXD220205182022-12-06 12:37:0238.8731-76.3826867219505Clb=5.7m/s t=-58.3C 400.511MHz Type=DFM ser=22020518 rdzTTGOsonde
KB3ZOXD220205182022-12-06 12:36:1638.8733-76.3871006719393Clb=5.7m/s t=-58.8C 400.511MHz Type=DFM ser=22020518 rdzTTGOsonde
KB3ZOXD220205182022-12-06 12:35:2538.8738-76.39151166119283Clb=4.2m/s t=-58.7C 400.511MHz Type=DFM ser=22020518 rdzTTGOsonde
K4KDR-12D220205182022-12-06 12:34:5238.8742-76.3938876319225Clb=4.3m/s t=-64.3C h=-1.0% p=-1.0hPa 400.510 MHz Type=DFM17 ser=22020518 Radiosonde
KB3ZOXD220205182022-12-06 12:34:2638.8742-76.3954776119182Clb=3.2m/s t=-58.8C 400.511MHz Type=DFM ser=22020518 rdzTTGOsonde
KB3ZOXD220205182022-12-06 12:33:3538.8745-76.3989975219079Clb=4.8m/s t=-59.0C 400.511MHz Type=DFM ser=22020518 rdzTTGOsonde
KB3ZOXD220205182022-12-06 12:32:5038.9002-76.552910812415838Clb=5.0m/s t=-61.6C 400.511MHz Type=DFM ser=22020518 rdzTTGOsonde
KB3ZOXD220205182022-12-06 12:31:5638.9025-76.560411112415737Clb=5.2m/s t=-61.5C 400.511MHz Type=DFM ser=22020518 rdzTTGOsonde
KB3ZOXD220205182022-12-06 12:31:0838.9043-76.567810813915641Clb=4.1m/s t=-61.6C 400.511MHz Type=DFM ser=22020518 rdzTTGOsonde
KB3ZOXD220205182022-12-06 12:30:2038.906-76.576210412015545Clb=4.4m/s t=-61.9C 400.511MHz Type=DFM ser=22020518 rdzTTGOsonde
KB3ZOXD220205182022-12-06 12:29:3138.9073-76.584510413015447Clb=5.8m/s t=-61.4C 400.511MHz Type=DFM ser=22020518 rdzTTGOsonde
KB3ZOXD220205182022-12-06 12:28:4438.9091-76.59310912615337Clb=3.6m/s t=-60.5C 400.511MHz Type=DFM ser=22020518 rdzTTGOsonde
KB3ZOXD220205182022-12-06 12:27:5638.9113-76.601411313715239Clb=6.6m/s t=-60.5C 400.511MHz Type=DFM ser=22020518 rdzTTGOsonde
KB3ZOXD220205182022-12-06 12:27:1038.9143-76.6111515615138Clb=4.0m/s t=-60.7C 400.511MHz Type=DFM ser=22020518 rdzTTGOsonde
KB3ZOXD220205182022-12-06 12:26:2938.9174-76.61911114815040Clb=4.3m/s t=-60.4C 400.511MHz Type=DFM ser=22020518 rdzTTGOsonde
KB3ZOXD220205182022-12-06 12:25:4238.9202-76.627711212014942Clb=4.7m/s t=-60.8C 400.511MHz Type=DFM ser=22020518 rdzTTGOsonde
KB3ZOXD220205182022-12-06 12:24:5038.9226-76.636311315014843Clb=4.9m/s t=-61.1C 400.511MHz Type=DFM ser=22020518 rdzTTGOsonde
KB3ZOXD220205182022-12-06 12:24:0138.9256-76.644512013914751Clb=4.9m/s t=-60.9C 400.511MHz Type=DFM ser=22020518 rdzTTGOsonde
KB3ZOXD220205182022-12-06 12:23:1538.9286-76.653411315414651Clb=5.5m/s t=-61.2C 400.511MHz Type=DFM ser=22020518 rdzTTGOsonde
KB3ZOXD220205182022-12-06 12:22:2138.9315-76.662511713114551Clb=5.3m/s t=-61.2C 400.511MHz Type=DFM ser=22020518 rdzTTGOsonde
KB3ZOXD220205182022-12-06 12:21:2938.9342-76.671311315214449Clb=5.0m/s t=-60.6C 400.511MHz Type=DFM ser=22020518 rdzTTGOsonde
KB3ZOXD220205182022-12-06 12:20:2938.9374-76.680611815614340Clb=4.0m/s t=-60.0C 400.511MHz Type=DFM ser=22020518 rdzTTGOsonde
KB3ZOXD220205182022-12-06 12:19:0938.9406-76.689311716114241Clb=5.2m/s t=-59.7C 400.511MHz Type=DFM ser=22020518 rdzTTGOsonde
KB3ZOXD220205182022-12-06 12:18:1438.9441-76.698312114314141Clb=4.7m/s t=-59.1C 400.511MHz Type=DFM ser=22020518 rdzTTGOsonde
KB3ZOXD220205182022-12-06 12:17:3138.9476-76.706911915214045Clb=5.1m/s t=-58.6C 400.511MHz Type=DFM ser=22020518 rdzTTGOsonde